sensor_id;sensor_type;location;lat;lon;timestamp;P1;durP1;ratioP1;P2;durP2;ratioP2
15181;SDS011;7692;50.602;8.692;2024-02-15T00:02:22;1.20;;;1.20;;
15181;SDS011;7692;50.602;8.692;2024-02-15T00:05:11;1.20;;;1.20;;
15181;SDS011;7692;50.602;8.692;2024-02-15T00:07:53;1.10;;;1.10;;
15181;SDS011;7692;50.602;8.692;2024-02-15T00:10:49;1.20;;;1.20;;
15181;SDS011;7692;50.602;8.692;2024-02-15T00:13:30;1.30;;;1.30;;
15181;SDS011;7692;50.602;8.692;2024-02-15T00:16:18;1.20;;;1.20;;
15181;SDS011;7692;50.602;8.692;2024-02-15T00:18:59;1.10;;;1.10;;
15181;SDS011;7692;50.602;8.692;2024-02-15T00:21:48;1.27;;;1.27;;
15181;SDS011;7692;50.602;8.692;2024-02-15T00:24:30;1.10;;;1.10;;
15181;SDS011;7692;50.602;8.692;2024-02-15T00:27:25;1.20;;;1.20;;
15181;SDS011;7692;50.602;8.692;2024-02-15T00:30:06;1.20;;;1.20;;
15181;SDS011;7692;50.602;8.692;2024-02-15T00:32:57;1.20;;;1.20;;
15181;SDS011;7692;50.602;8.692;2024-02-15T00:35:45;1.20;;;1.20;;
15181;SDS011;7692;50.602;8.692;2024-02-15T00:38:26;1.30;;;1.30;;
15181;SDS011;7692;50.602;8.692;2024-02-15T00:41:15;1.30;;;1.30;;
15181;SDS011;7692;50.602;8.692;2024-02-15T00:43:56;1.20;;;1.20;;
15181;SDS011;7692;50.602;8.692;2024-02-15T00:46:44;1.20;;;1.20;;
15181;SDS011;7692;50.602;8.692;2024-02-15T00:49:27;1.10;;;1.10;;
15181;SDS011;7692;50.602;8.692;2024-02-15T00:52:22;1.30;;;1.30;;
15181;SDS011;7692;50.602;8.692;2024-02-15T00:55:05;1.20;;;1.20;;
15181;SDS011;7692;50.602;8.692;2024-02-15T00:58:01;1.20;;;1.20;;
15181;SDS011;7692;50.602;8.692;2024-02-15T01:00:43;1.20;;;1.20;;
15181;SDS011;7692;50.602;8.692;2024-02-15T01:03:31;1.20;;;1.20;;
15181;SDS011;7692;50.602;8.692;2024-02-15T01:06:12;1.20;;;1.20;;
15181;SDS011;7692;50.602;8.692;2024-02-15T01:09:07;1.10;;;1.10;;
15181;SDS011;7692;50.602;8.692;2024-02-15T01:11:49;1.20;;;1.20;;
15181;SDS011;7692;50.602;8.692;2024-02-15T01:14:45;1.20;;;1.20;;
15181;SDS011;7692;50.602;8.692;2024-02-15T01:17:20;1.20;;;1.20;;
15181;SDS011;7692;50.602;8.692;2024-02-15T01:20:15;1.00;;;1.00;;
15181;SDS011;7692;50.602;8.692;2024-02-15T01:22:49;1.20;;;1.20;;
15181;SDS011;7692;50.602;8.692;2024-02-15T01:25:44;1.20;;;1.20;;
15181;SDS011;7692;50.602;8.692;2024-02-15T01:28:25;1.20;;;1.20;;
15181;SDS011;7692;50.602;8.692;2024-02-15T01:31:14;1.20;;;1.20;;
15181;SDS011;7692;50.602;8.692;2024-02-15T01:33:56;1.20;;;1.20;;
15181;SDS011;7692;50.602;8.692;2024-02-15T01:36:44;1.20;;;1.20;;
15181;SDS011;7692;50.602;8.692;2024-02-15T01:39:28;1.20;;;1.20;;
15181;SDS011;7692;50.602;8.692;2024-02-15T01:42:16;1.10;;;1.10;;
15181;SDS011;7692;50.602;8.692;2024-02-15T01:44:57;1.20;;;1.20;;
15181;SDS011;7692;50.602;8.692;2024-02-15T01:47:53;1.20;;;1.20;;
15181;SDS011;7692;50.602;8.692;2024-02-15T01:50:29;1.10;;;1.10;;
15181;SDS011;7692;50.602;8.692;2024-02-15T01:53:26;1.00;;;1.00;;
15181;SDS011;7692;50.602;8.692;2024-02-15T01:56:08;1.20;;;1.20;;
15181;SDS011;7692;50.602;8.692;2024-02-15T01:58:58;1.00;;;1.00;;
15181;SDS011;7692;50.602;8.692;2024-02-15T02:01:41;1.20;;;1.20;;
15181;SDS011;7692;50.602;8.692;2024-02-15T02:04:38;1.20;;;1.20;;
15181;SDS011;7692;50.602;8.692;2024-02-15T02:07:21;1.20;;;1.20;;
15181;SDS011;7692;50.602;8.692;2024-02-15T02:10:16;1.20;;;1.20;;
15181;SDS011;7692;50.602;8.692;2024-02-15T02:12:59;1.20;;;1.20;;
15181;SDS011;7692;50.602;8.692;2024-02-15T02:15:55;1.40;;;1.40;;
15181;SDS011;7692;50.602;8.692;2024-02-15T02:18:36;1.40;;;1.40;;
15181;SDS011;7692;50.602;8.692;2024-02-15T02:21:25;1.20;;;1.20;;
15181;SDS011;7692;50.602;8.692;2024-02-15T02:24:10;1.10;;;1.10;;
15181;SDS011;7692;50.602;8.692;2024-02-15T02:27:02;1.40;;;1.40;;
15181;SDS011;7692;50.602;8.692;2024-02-15T02:29:45;1.20;;;1.20;;
15181;SDS011;7692;50.602;8.692;2024-02-15T02:32:33;1.20;;;1.20;;
15181;SDS011;7692;50.602;8.692;2024-02-15T02:35:16;1.20;;;1.20;;
15181;SDS011;7692;50.602;8.692;2024-02-15T02:38:11;1.30;;;1.30;;
15181;SDS011;7692;50.602;8.692;2024-02-15T02:40:47;1.23;;;1.23;;
15181;SDS011;7692;50.602;8.692;2024-02-15T02:43:43;1.10;;;1.10;;
15181;SDS011;7692;50.602;8.692;2024-02-15T02:46:18;1.30;;;1.30;;
15181;SDS011;7692;50.602;8.692;2024-02-15T02:49:13;1.30;;;1.30;;
15181;SDS011;7692;50.602;8.692;2024-02-15T02:51:54;1.30;;;1.30;;
15181;SDS011;7692;50.602;8.692;2024-02-15T02:54:49;1.30;;;1.30;;
15181;SDS011;7692;50.602;8.692;2024-02-15T02:57:31;1.23;;;1.23;;
15181;SDS011;7692;50.602;8.692;2024-02-15T03:00:14;1.20;;;1.20;;
15181;SDS011;7692;50.602;8.692;2024-02-15T03:03:10;1.20;;;1.20;;
15181;SDS011;7692;50.602;8.692;2024-02-15T03:05:45;1.03;;;1.03;;
15181;SDS011;7692;50.602;8.692;2024-02-15T03:08:41;1.50;;;1.50;;
15181;SDS011;7692;50.602;8.692;2024-02-15T03:11:24;1.10;;;1.10;;
15181;SDS011;7692;50.602;8.692;2024-02-15T03:14:13;1.20;;;1.20;;
15181;SDS011;7692;50.602;8.692;2024-02-15T03:16:56;1.20;;;1.20;;
15181;SDS011;7692;50.602;8.692;2024-02-15T03:19:44;1.50;;;1.50;;
15181;SDS011;7692;50.602;8.692;2024-02-15T03:22:25;1.30;;;1.30;;
15181;SDS011;7692;50.602;8.692;2024-02-15T03:25:14;1.27;;;1.27;;
15181;SDS011;7692;50.602;8.692;2024-02-15T03:27:55;1.20;;;1.20;;
15181;SDS011;7692;50.602;8.692;2024-02-15T03:30:51;1.30;;;1.30;;
15181;SDS011;7692;50.602;8.692;2024-02-15T03:33:27;1.00;;;1.00;;
15181;SDS011;7692;50.602;8.692;2024-02-15T03:36:22;1.20;;;1.20;;
15181;SDS011;7692;50.602;8.692;2024-02-15T03:39:03;1.20;;;1.20;;
15181;SDS011;7692;50.602;8.692;2024-02-15T03:41:53;1.10;;;1.10;;
15181;SDS011;7692;50.602;8.692;2024-02-15T03:44:35;1.10;;;1.10;;
15181;SDS011;7692;50.602;8.692;2024-02-15T03:47:23;1.20;;;1.20;;
15181;SDS011;7692;50.602;8.692;2024-02-15T03:50:06;1.30;;;1.30;;
15181;SDS011;7692;50.602;8.692;2024-02-15T03:52:56;1.30;;;1.30;;
15181;SDS011;7692;50.602;8.692;2024-02-15T03:55:41;1.30;;;1.30;;
15181;SDS011;7692;50.602;8.692;2024-02-15T03:58:36;1.30;;;1.30;;
15181;SDS011;7692;50.602;8.692;2024-02-15T04:01:19;1.30;;;1.30;;
15181;SDS011;7692;50.602;8.692;2024-02-15T04:04:14;1.30;;;1.30;;
15181;SDS011;7692;50.602;8.692;2024-02-15T04:06:49;1.60;;;1.60;;
15181;SDS011;7692;50.602;8.692;2024-02-15T04:09:45;1.30;;;1.30;;
15181;SDS011;7692;50.602;8.692;2024-02-15T04:12:20;1.20;;;1.20;;
15181;SDS011;7692;50.602;8.692;2024-02-15T04:15:15;1.13;;;1.13;;
15181;SDS011;7692;50.602;8.692;2024-02-15T04:17:57;1.30;;;1.30;;
15181;SDS011;7692;50.602;8.692;2024-02-15T04:20:46;1.30;;;1.30;;
15181;SDS011;7692;50.602;8.692;2024-02-15T04:23:29;1.30;;;1.30;;
15181;SDS011;7692;50.602;8.692;2024-02-15T04:26:17;1.30;;;1.30;;
15181;SDS011;7692;50.602;8.692;2024-02-15T04:29:06;1.30;;;1.30;;
15181;SDS011;7692;50.602;8.692;2024-02-15T04:32:01;1.30;;;1.30;;
15181;SDS011;7692;50.602;8.692;2024-02-15T04:34:36;1.10;;;1.10;;
15181;SDS011;7692;50.602;8.692;2024-02-15T04:37:36;1.30;;;1.30;;
15181;SDS011;7692;50.602;8.692;2024-02-15T04:40:12;1.10;;;1.10;;
15181;SDS011;7692;50.602;8.692;2024-02-15T04:43:08;1.30;;;1.30;;
15181;SDS011;7692;50.602;8.692;2024-02-15T04:45:51;1.30;;;1.30;;
15181;SDS011;7692;50.602;8.692;2024-02-15T04:48:32;1.30;;;1.30;;
15181;SDS011;7692;50.602;8.692;2024-02-15T04:51:28;1.20;;;1.20;;
15181;SDS011;7692;50.602;8.692;2024-02-15T04:54:02;1.20;;;1.20;;
15181;SDS011;7692;50.602;8.692;2024-02-15T04:57:01;1.10;;;1.10;;
15181;SDS011;7692;50.602;8.692;2024-02-15T04:59:45;1.30;;;1.30;;
15181;SDS011;7692;50.602;8.692;2024-02-15T05:02:41;1.17;;;1.17;;
15181;SDS011;7692;50.602;8.692;2024-02-15T05:05:23;1.30;;;1.30;;
15181;SDS011;7692;50.602;8.692;2024-02-15T05:08:11;1.40;;;1.40;;
15181;SDS011;7692;50.602;8.692;2024-02-15T05:10:52;1.30;;;1.30;;
15181;SDS011;7692;50.602;8.692;2024-02-15T05:13:48;1.33;;;1.33;;
15181;SDS011;7692;50.602;8.692;2024-02-15T05:16:37;1.30;;;1.30;;
15181;SDS011;7692;50.602;8.692;2024-02-15T05:19:34;1.30;;;1.30;;
15181;SDS011;7692;50.602;8.692;2024-02-15T05:22:16;1.30;;;1.30;;
15181;SDS011;7692;50.602;8.692;2024-02-15T05:25:11;1.30;;;1.30;;
15181;SDS011;7692;50.602;8.692;2024-02-15T05:27:53;1.30;;;1.30;;
15181;SDS011;7692;50.602;8.692;2024-02-15T05:30:49;1.30;;;1.30;;
15181;SDS011;7692;50.602;8.692;2024-02-15T05:33:32;1.30;;;1.30;;
15181;SDS011;7692;50.602;8.692;2024-02-15T05:36:22;1.50;;;1.50;;
15181;SDS011;7692;50.602;8.692;2024-02-15T05:39:06;1.30;;;1.30;;
15181;SDS011;7692;50.602;8.692;2024-02-15T05:41:55;1.40;;;1.40;;
15181;SDS011;7692;50.602;8.692;2024-02-15T05:44:40;1.10;;;1.10;;
15181;SDS011;7692;50.602;8.692;2024-02-15T05:47:44;1.40;;;1.40;;
15181;SDS011;7692;50.602;8.692;2024-02-15T05:50:19;1.30;;;1.30;;
15181;SDS011;7692;50.602;8.692;2024-02-15T05:53:16;1.50;;;1.50;;
15181;SDS011;7692;50.602;8.692;2024-02-15T05:55:50;1.60;;;1.60;;
15181;SDS011;7692;50.602;8.692;2024-02-15T05:58:45;1.40;;;1.40;;
15181;SDS011;7692;50.602;8.692;2024-02-15T06:01:29;1.40;;;1.40;;
15181;SDS011;7692;50.602;8.692;2024-02-15T06:04:20;1.50;;;1.50;;
15181;SDS011;7692;50.602;8.692;2024-02-15T06:07:03;1.40;;;1.40;;
15181;SDS011;7692;50.602;8.692;2024-02-15T06:09:52;1.30;;;1.30;;
15181;SDS011;7692;50.602;8.692;2024-02-15T06:12:33;1.33;;;1.33;;
15181;SDS011;7692;50.602;8.692;2024-02-15T06:15:28;1.30;;;1.30;;
15181;SDS011;7692;50.602;8.692;2024-02-15T06:18:03;1.40;;;1.40;;
15181;SDS011;7692;50.602;8.692;2024-02-15T06:20:59;1.50;;;1.50;;
15181;SDS011;7692;50.602;8.692;2024-02-15T06:23:35;1.40;;;1.40;;
15181;SDS011;7692;50.602;8.692;2024-02-15T06:26:30;1.60;;;1.60;;
15181;SDS011;7692;50.602;8.692;2024-02-15T06:29:05;1.10;;;1.10;;
15181;SDS011;7692;50.602;8.692;2024-02-15T06:32:17;1.40;;;1.40;;
15181;SDS011;7692;50.602;8.692;2024-02-15T06:35:19;1.40;;;1.40;;
15181;SDS011;7692;50.602;8.692;2024-02-15T06:38:33;1.40;;;1.40;;
15181;SDS011;7692;50.602;8.692;2024-02-15T06:41:32;1.40;;;1.40;;
15181;SDS011;7692;50.602;8.692;2024-02-15T06:44:30;1.40;;;1.40;;
15181;SDS011;7692;50.602;8.692;2024-02-15T06:47:11;1.40;;;1.40;;
15181;SDS011;7692;50.602;8.692;2024-02-15T06:50:07;1.50;;;1.50;;
15181;SDS011;7692;50.602;8.692;2024-02-15T06:52:49;1.30;;;1.30;;
15181;SDS011;7692;50.602;8.692;2024-02-15T06:55:46;1.40;;;1.40;;
15181;SDS011;7692;50.602;8.692;2024-02-15T06:58:29;1.40;;;1.40;;
15181;SDS011;7692;50.602;8.692;2024-02-15T07:01:17;1.30;;;1.30;;
15181;SDS011;7692;50.602;8.692;2024-02-15T07:04:01;1.50;;;1.50;;
15181;SDS011;7692;50.602;8.692;2024-02-15T07:06:57;1.30;;;1.30;;
15181;SDS011;7692;50.602;8.692;2024-02-15T07:09:42;1.40;;;1.40;;
15181;SDS011;7692;50.602;8.692;2024-02-15T07:12:38;1.33;;;1.33;;
15181;SDS011;7692;50.602;8.692;2024-02-15T07:15:13;1.30;;;1.30;;
15181;SDS011;7692;50.602;8.692;2024-02-15T07:18:08;1.30;;;1.30;;
15181;SDS011;7692;50.602;8.692;2024-02-15T07:20:50;1.30;;;1.30;;
15181;SDS011;7692;50.602;8.692;2024-02-15T07:23:49;1.30;;;1.30;;
15181;SDS011;7692;50.602;8.692;2024-02-15T07:26:31;1.30;;;1.30;;
15181;SDS011;7692;50.602;8.692;2024-02-15T07:29:20;1.30;;;1.30;;
15181;SDS011;7692;50.602;8.692;2024-02-15T07:32:03;1.20;;;1.20;;
15181;SDS011;7692;50.602;8.692;2024-02-15T07:34:52;1.20;;;1.20;;
15181;SDS011;7692;50.602;8.692;2024-02-15T07:37:33;1.30;;;1.30;;
15181;SDS011;7692;50.602;8.692;2024-02-15T07:40:28;1.30;;;1.30;;
15181;SDS011;7692;50.602;8.692;2024-02-15T07:43:09;1.20;;;1.20;;
15181;SDS011;7692;50.602;8.692;2024-02-15T07:46:05;1.20;;;1.20;;
15181;SDS011;7692;50.602;8.692;2024-02-15T07:48:40;1.27;;;1.27;;
15181;SDS011;7692;50.602;8.692;2024-02-15T07:51:35;1.20;;;1.20;;
15181;SDS011;7692;50.602;8.692;2024-02-15T07:54:10;1.20;;;1.20;;
15181;SDS011;7692;50.602;8.692;2024-02-15T07:57:07;1.20;;;1.20;;
15181;SDS011;7692;50.602;8.692;2024-02-15T07:59:49;1.20;;;1.20;;
15181;SDS011;7692;50.602;8.692;2024-02-15T08:02:44;1.30;;;1.30;;
15181;SDS011;7692;50.602;8.692;2024-02-15T08:05:26;1.30;;;1.30;;
15181;SDS011;7692;50.602;8.692;2024-02-15T08:08:15;1.30;;;1.30;;
15181;SDS011;7692;50.602;8.692;2024-02-15T08:10:56;1.30;;;1.30;;
15181;SDS011;7692;50.602;8.692;2024-02-15T08:13:51;1.30;;;1.30;;
15181;SDS011;7692;50.602;8.692;2024-02-15T08:16:29;1.20;;;1.20;;
15181;SDS011;7692;50.602;8.692;2024-02-15T08:19:25;1.30;;;1.30;;
15181;SDS011;7692;50.602;8.692;2024-02-15T08:22:03;1.20;;;1.20;;
15181;SDS011;7692;50.602;8.692;2024-02-15T08:24:59;1.30;;;1.30;;
15181;SDS011;7692;50.602;8.692;2024-02-15T08:27:40;1.30;;;1.30;;
15181;SDS011;7692;50.602;8.692;2024-02-15T08:30:30;1.20;;;1.20;;
15181;SDS011;7692;50.602;8.692;2024-02-15T08:33:11;1.20;;;1.20;;
15181;SDS011;7692;50.602;8.692;2024-02-15T08:36:00;1.20;;;1.20;;
15181;SDS011;7692;50.602;8.692;2024-02-15T08:38:42;1.20;;;1.20;;
15181;SDS011;7692;50.602;8.692;2024-02-15T08:41:34;1.20;;;1.20;;
15181;SDS011;7692;50.602;8.692;2024-02-15T08:44:17;1.20;;;1.20;;
15181;SDS011;7692;50.602;8.692;2024-02-15T08:47:12;1.20;;;1.20;;
15181;SDS011;7692;50.602;8.692;2024-02-15T08:49:46;1.20;;;1.20;;
15181;SDS011;7692;50.602;8.692;2024-02-15T08:52:42;1.10;;;1.10;;
15181;SDS011;7692;50.602;8.692;2024-02-15T08:55:17;1.20;;;1.20;;
15181;SDS011;7692;50.602;8.692;2024-02-15T08:58:14;1.10;;;1.10;;
15181;SDS011;7692;50.602;8.692;2024-02-15T09:00:55;1.20;;;1.20;;
15181;SDS011;7692;50.602;8.692;2024-02-15T09:03:50;1.20;;;1.20;;
15181;SDS011;7692;50.602;8.692;2024-02-15T09:06:31;1.20;;;1.20;;
15181;SDS011;7692;50.602;8.692;2024-02-15T09:09:20;1.20;;;1.20;;
15181;SDS011;7692;50.602;8.692;2024-02-15T09:12:02;1.10;;;1.10;;
15181;SDS011;7692;50.602;8.692;2024-02-15T09:14:48;1.00;;;1.00;;
15181;SDS011;7692;50.602;8.692;2024-02-15T09:17:39;1.20;;;1.20;;
15181;SDS011;7692;50.602;8.692;2024-02-15T09:20:20;1.10;;;1.10;;
15181;SDS011;7692;50.602;8.692;2024-02-15T09:23:09;1.10;;;1.10;;
15181;SDS011;7692;50.602;8.692;2024-02-15T09:25:53;1.10;;;1.10;;
15181;SDS011;7692;50.602;8.692;2024-02-15T09:28:42;1.10;;;1.10;;
15181;SDS011;7692;50.602;8.692;2024-02-15T09:31:23;1.10;;;1.10;;
15181;SDS011;7692;50.602;8.692;2024-02-15T09:34:11;1.10;;;1.10;;
15181;SDS011;7692;50.602;8.692;2024-02-15T09:37:00;1.10;;;1.10;;
15181;SDS011;7692;50.602;8.692;2024-02-15T09:39:57;1.10;;;1.10;;
15181;SDS011;7692;50.602;8.692;2024-02-15T09:42:41;1.00;;;1.00;;
15181;SDS011;7692;50.602;8.692;2024-02-15T09:45:38;1.10;;;1.10;;
15181;SDS011;7692;50.602;8.692;2024-02-15T09:48:13;1.10;;;1.10;;
15181;SDS011;7692;50.602;8.692;2024-02-15T09:51:13;1.10;;;1.10;;
15181;SDS011;7692;50.602;8.692;2024-02-15T09:53:55;1.10;;;1.10;;
15181;SDS011;7692;50.602;8.692;2024-02-15T09:56:45;1.10;;;1.10;;
15181;SDS011;7692;50.602;8.692;2024-02-15T09:59:30;1.10;;;1.10;;
15181;SDS011;7692;50.602;8.692;2024-02-15T10:02:18;0.90;;;0.90;;
15181;SDS011;7692;50.602;8.692;2024-02-15T10:04:59;1.00;;;1.00;;
15181;SDS011;7692;50.602;8.692;2024-02-15T10:08:01;1.00;;;1.00;;
15181;SDS011;7692;50.602;8.692;2024-02-15T10:10:37;0.90;;;0.90;;
15181;SDS011;7692;50.602;8.692;2024-02-15T10:13:32;1.00;;;1.00;;
15181;SDS011;7692;50.602;8.692;2024-02-15T10:16:15;0.90;;;0.90;;
15181;SDS011;7692;50.602;8.692;2024-02-15T10:19:13;1.00;;;1.00;;
15181;SDS011;7692;50.602;8.692;2024-02-15T10:22:05;0.90;;;0.90;;
15181;SDS011;7692;50.602;8.692;2024-02-15T10:24:57;0.90;;;0.90;;
15181;SDS011;7692;50.602;8.692;2024-02-15T10:27:51;0.90;;;0.90;;
15181;SDS011;7692;50.602;8.692;2024-02-15T10:30:49;0.90;;;0.90;;
15181;SDS011;7692;50.602;8.692;2024-02-15T10:33:33;0.90;;;0.90;;
15181;SDS011;7692;50.602;8.692;2024-02-15T10:36:29;0.88;;;0.88;;
15181;SDS011;7692;50.602;8.692;2024-02-15T10:39:28;0.82;;;0.82;;
15181;SDS011;7692;50.602;8.692;2024-02-15T10:42:09;0.80;;;0.80;;
15181;SDS011;7692;50.602;8.692;2024-02-15T10:44:57;0.80;;;0.80;;
15181;SDS011;7692;50.602;8.692;2024-02-15T10:47:41;0.80;;;0.80;;
15181;SDS011;7692;50.602;8.692;2024-02-15T10:50:40;0.80;;;0.80;;
15181;SDS011;7692;50.602;8.692;2024-02-15T10:53:20;0.80;;;0.80;;
15181;SDS011;7692;50.602;8.692;2024-02-15T10:56:19;0.80;;;0.80;;
15181;SDS011;7692;50.602;8.692;2024-02-15T10:59:04;0.70;;;0.70;;
15181;SDS011;7692;50.602;8.692;2024-02-15T11:02:10;0.80;;;0.80;;
15181;SDS011;7692;50.602;8.692;2024-02-15T11:05:05;0.80;;;0.80;;
15181;SDS011;7692;50.602;8.692;2024-02-15T11:07:55;0.80;;;0.80;;
15181;SDS011;7692;50.602;8.692;2024-02-15T11:10:37;0.80;;;0.80;;
15181;SDS011;7692;50.602;8.692;2024-02-15T11:13:34;0.90;;;0.90;;
15181;SDS011;7692;50.602;8.692;2024-02-15T11:19:40;0.80;;;0.80;;
15181;SDS011;7692;50.602;8.692;2024-02-15T11:22:20;0.80;;;0.80;;
15181;SDS011;7692;50.602;8.692;2024-02-15T11:25:17;0.90;;;0.90;;
15181;SDS011;7692;50.602;8.692;2024-02-15T11:34:49;0.80;;;0.80;;
15181;SDS011;7692;50.602;8.692;2024-02-15T11:44:00;0.77;;;0.77;;
15181;SDS011;7692;50.602;8.692;2024-02-15T11:46:45;0.80;;;0.80;;
15181;SDS011;7692;50.602;8.692;2024-02-15T11:49:53;0.80;;;0.80;;
15181;SDS011;7692;50.602;8.692;2024-02-15T11:52:35;0.80;;;0.80;;
15181;SDS011;7692;50.602;8.692;2024-02-15T11:55:23;0.80;;;0.80;;
15181;SDS011;7692;50.602;8.692;2024-02-15T11:58:08;0.80;;;0.80;;
15181;SDS011;7692;50.602;8.692;2024-02-15T12:01:15;0.80;;;0.80;;
15181;SDS011;7692;50.602;8.692;2024-02-15T12:04:19;0.85;;;0.85;;
15181;SDS011;7692;50.602;8.692;2024-02-15T12:07:31;0.80;;;0.80;;
15181;SDS011;7692;50.602;8.692;2024-02-15T12:10:31;0.77;;;0.77;;
15181;SDS011;7692;50.602;8.692;2024-02-15T12:13:44;0.80;;;0.80;;
15181;SDS011;7692;50.602;8.692;2024-02-15T12:16:58;0.80;;;0.80;;
15181;SDS011;7692;50.602;8.692;2024-02-15T12:20:11;0.80;;;0.80;;
15181;SDS011;7692;50.602;8.692;2024-02-15T12:22:47;0.80;;;0.80;;
15181;SDS011;7692;50.602;8.692;2024-02-15T12:25:42;0.80;;;0.80;;
15181;SDS011;7692;50.602;8.692;2024-02-15T12:28:20;0.70;;;0.70;;
15181;SDS011;7692;50.602;8.692;2024-02-15T12:31:16;0.80;;;0.80;;
15181;SDS011;7692;50.602;8.692;2024-02-15T12:34:01;0.77;;;0.77;;
15181;SDS011;7692;50.602;8.692;2024-02-15T12:37:14;0.70;;;0.70;;
15181;SDS011;7692;50.602;8.692;2024-02-15T12:40:09;0.80;;;0.80;;
15181;SDS011;7692;50.602;8.692;2024-02-15T12:42:58;0.80;;;0.80;;
15181;SDS011;7692;50.602;8.692;2024-02-15T12:45:42;0.80;;;0.80;;
15181;SDS011;7692;50.602;8.692;2024-02-15T12:48:39;0.73;;;0.73;;
15181;SDS011;7692;50.602;8.692;2024-02-15T12:51:15;0.70;;;0.70;;
15181;SDS011;7692;50.602;8.692;2024-02-15T12:54:12;0.80;;;0.80;;
15181;SDS011;7692;50.602;8.692;2024-02-15T12:56:49;0.80;;;0.80;;
15181;SDS011;7692;50.602;8.692;2024-02-15T12:59:46;0.75;;;0.75;;
15181;SDS011;7692;50.602;8.692;2024-02-15T13:02:27;0.70;;;0.70;;
15181;SDS011;7692;50.602;8.692;2024-02-15T13:05:16;0.70;;;0.70;;
15181;SDS011;7692;50.602;8.692;2024-02-15T13:07:59;0.73;;;0.73;;
15181;SDS011;7692;50.602;8.692;2024-02-15T13:10:51;0.80;;;0.80;;
15181;SDS011;7692;50.602;8.692;2024-02-15T13:13:33;0.70;;;0.70;;
15181;SDS011;7692;50.602;8.692;2024-02-15T13:16:29;0.80;;;0.80;;
15181;SDS011;7692;50.602;8.692;2024-02-15T13:19:11;0.80;;;0.80;;
15181;SDS011;7692;50.602;8.692;2024-02-15T13:22:08;0.80;;;0.80;;
15181;SDS011;7692;50.602;8.692;2024-02-15T13:24:43;0.80;;;0.80;;
15181;SDS011;7692;50.602;8.692;2024-02-15T13:27:41;0.80;;;0.80;;
15181;SDS011;7692;50.602;8.692;2024-02-15T13:30:24;0.80;;;0.80;;
15181;SDS011;7692;50.602;8.692;2024-02-15T13:33:12;0.80;;;0.80;;
15181;SDS011;7692;50.602;8.692;2024-02-15T13:35:54;0.70;;;0.70;;
15181;SDS011;7692;50.602;8.692;2024-02-15T13:38:43;0.73;;;0.73;;
15181;SDS011;7692;50.602;8.692;2024-02-15T13:41:25;0.70;;;0.70;;
15181;SDS011;7692;50.602;8.692;2024-02-15T13:44:13;0.80;;;0.80;;
15181;SDS011;7692;50.602;8.692;2024-02-15T13:46:57;0.80;;;0.80;;
15181;SDS011;7692;50.602;8.692;2024-02-15T13:49:52;0.80;;;0.80;;
15181;SDS011;7692;50.602;8.692;2024-02-15T13:52:27;0.80;;;0.80;;
15181;SDS011;7692;50.602;8.692;2024-02-15T13:55:23;0.80;;;0.80;;
15181;SDS011;7692;50.602;8.692;2024-02-15T13:58:02;0.80;;;0.80;;
15181;SDS011;7692;50.602;8.692;2024-02-15T14:00:59;0.70;;;0.70;;
15181;SDS011;7692;50.602;8.692;2024-02-15T14:03:43;0.80;;;0.80;;
15181;SDS011;7692;50.602;8.692;2024-02-15T14:06:31;0.80;;;0.80;;
15181;SDS011;7692;50.602;8.692;2024-02-15T14:09:14;0.80;;;0.80;;
15181;SDS011;7692;50.602;8.692;2024-02-15T14:12:07;0.70;;;0.70;;
15181;SDS011;7692;50.602;8.692;2024-02-15T14:15:03;0.70;;;0.70;;
15181;SDS011;7692;50.602;8.692;2024-02-15T14:17:46;0.80;;;0.80;;
15181;SDS011;7692;50.602;8.692;2024-02-15T14:20:36;0.80;;;0.80;;
15181;SDS011;7692;50.602;8.692;2024-02-15T14:23:17;0.73;;;0.73;;
15181;SDS011;7692;50.602;8.692;2024-02-15T14:26:07;0.80;;;0.80;;
15181;SDS011;7692;50.602;8.692;2024-02-15T14:28:51;0.70;;;0.70;;
15181;SDS011;7692;50.602;8.692;2024-02-15T14:31:52;0.73;;;0.73;;
15181;SDS011;7692;50.602;8.692;2024-02-15T14:34:45;0.70;;;0.70;;
15181;SDS011;7692;50.602;8.692;2024-02-15T14:37:40;0.80;;;0.80;;
15181;SDS011;7692;50.602;8.692;2024-02-15T14:40:21;0.73;;;0.73;;
15181;SDS011;7692;50.602;8.692;2024-02-15T14:43:24;0.70;;;0.70;;
15181;SDS011;7692;50.602;8.692;2024-02-15T14:46:07;0.80;;;0.80;;
15181;SDS011;7692;50.602;8.692;2024-02-15T14:48:56;0.80;;;0.80;;
15181;SDS011;7692;50.602;8.692;2024-02-15T14:51:37;0.80;;;0.80;;
15181;SDS011;7692;50.602;8.692;2024-02-15T14:54:25;0.80;;;0.80;;
15181;SDS011;7692;50.602;8.692;2024-02-15T14:57:06;0.80;;;0.80;;
15181;SDS011;7692;50.602;8.692;2024-02-15T15:00:03;0.80;;;0.80;;
15181;SDS011;7692;50.602;8.692;2024-02-15T15:02:54;0.80;;;0.80;;
15181;SDS011;7692;50.602;8.692;2024-02-15T15:05:36;0.90;;;0.90;;
15181;SDS011;7692;50.602;8.692;2024-02-15T15:08:48;0.80;;;0.80;;
15181;SDS011;7692;50.602;8.692;2024-02-15T15:11:49;0.80;;;0.80;;
15181;SDS011;7692;50.602;8.692;2024-02-15T15:15:01;0.88;;;0.88;;
15181;SDS011;7692;50.602;8.692;2024-02-15T15:17:38;0.90;;;0.90;;
15181;SDS011;7692;50.602;8.692;2024-02-15T15:20:34;0.90;;;0.90;;
15181;SDS011;7692;50.602;8.692;2024-02-15T15:23:17;0.90;;;0.90;;
15181;SDS011;7692;50.602;8.692;2024-02-15T15:26:05;0.90;;;0.90;;
15181;SDS011;7692;50.602;8.692;2024-02-15T15:28:46;0.80;;;0.80;;
15181;SDS011;7692;50.602;8.692;2024-02-15T15:31:37;0.85;;;0.85;;
15181;SDS011;7692;50.602;8.692;2024-02-15T15:34:19;0.80;;;0.80;;
15181;SDS011;7692;50.602;8.692;2024-02-15T15:37:15;0.90;;;0.90;;
15181;SDS011;7692;50.602;8.692;2024-02-15T15:39:58;0.90;;;0.90;;
15181;SDS011;7692;50.602;8.692;2024-02-15T15:42:55;0.90;;;0.90;;
15181;SDS011;7692;50.602;8.692;2024-02-15T15:45:30;0.87;;;0.87;;
15181;SDS011;7692;50.602;8.692;2024-02-15T15:48:27;0.90;;;0.90;;
15181;SDS011;7692;50.602;8.692;2024-02-15T15:51:08;0.90;;;0.90;;
15181;SDS011;7692;50.602;8.692;2024-02-15T15:54:04;0.90;;;0.90;;
15181;SDS011;7692;50.602;8.692;2024-02-15T15:56:46;0.90;;;0.90;;
15181;SDS011;7692;50.602;8.692;2024-02-15T15:59:36;1.00;;;1.00;;
15181;SDS011;7692;50.602;8.692;2024-02-15T16:02:18;0.90;;;0.90;;
15181;SDS011;7692;50.602;8.692;2024-02-15T16:05:07;0.90;;;0.90;;
15181;SDS011;7692;50.602;8.692;2024-02-15T16:07:50;0.90;;;0.90;;
15181;SDS011;7692;50.602;8.692;2024-02-15T16:10:46;0.90;;;0.90;;
15181;SDS011;7692;50.602;8.692;2024-02-15T16:13:21;0.90;;;0.90;;
15181;SDS011;7692;50.602;8.692;2024-02-15T16:16:17;0.90;;;0.90;;
15181;SDS011;7692;50.602;8.692;2024-02-15T16:18:52;0.90;;;0.90;;
15181;SDS011;7692;50.602;8.692;2024-02-15T16:21:48;0.90;;;0.90;;
15181;SDS011;7692;50.602;8.692;2024-02-15T16:24:30;0.90;;;0.90;;
15181;SDS011;7692;50.602;8.692;2024-02-15T16:27:19;1.03;;;1.03;;
15181;SDS011;7692;50.602;8.692;2024-02-15T16:30:01;0.90;;;0.90;;
15181;SDS011;7692;50.602;8.692;2024-02-15T16:32:51;0.90;;;0.90;;
15181;SDS011;7692;50.602;8.692;2024-02-15T16:35:33;0.90;;;0.90;;
15181;SDS011;7692;50.602;8.692;2024-02-15T16:38:28;0.90;;;0.90;;
15181;SDS011;7692;50.602;8.692;2024-02-15T16:41:09;0.90;;;0.90;;
15181;SDS011;7692;50.602;8.692;2024-02-15T16:43:58;0.90;;;0.90;;
15181;SDS011;7692;50.602;8.692;2024-02-15T16:46:33;0.97;;;0.97;;
15181;SDS011;7692;50.602;8.692;2024-02-15T16:49:28;1.00;;;1.00;;
15181;SDS011;7692;50.602;8.692;2024-02-15T16:52:09;1.00;;;1.00;;
15181;SDS011;7692;50.602;8.692;2024-02-15T16:54:57;1.00;;;1.00;;
15181;SDS011;7692;50.602;8.692;2024-02-15T16:57:40;1.00;;;1.00;;
15181;SDS011;7692;50.602;8.692;2024-02-15T17:00:32;1.00;;;1.00;;
15181;SDS011;7692;50.602;8.692;2024-02-15T17:03:14;1.00;;;1.00;;
15181;SDS011;7692;50.602;8.692;2024-02-15T17:06:09;1.00;;;1.00;;
15181;SDS011;7692;50.602;8.692;2024-02-15T17:08:44;1.00;;;1.00;;
15181;SDS011;7692;50.602;8.692;2024-02-15T17:11:42;1.10;;;1.10;;
15181;SDS011;7692;50.602;8.692;2024-02-15T17:14:16;1.00;;;1.00;;
15181;SDS011;7692;50.602;8.692;2024-02-15T17:17:12;1.00;;;1.00;;
15181;SDS011;7692;50.602;8.692;2024-02-15T17:19:54;0.97;;;0.97;;
15181;SDS011;7692;50.602;8.692;2024-02-15T17:22:36;1.00;;;1.00;;
15181;SDS011;7692;50.602;8.692;2024-02-15T17:25:32;1.00;;;1.00;;